Time,TemperatureF,DewpointF,PressureIn,WindDirection,WindDirectionDegrees,WindSpeedMPH,WindSpeedGustMPH,Humidity,HourlyPrecipIn,Conditions,Clouds,dailyrainin,SoftwareType,DateUTC
2013-07-05 00:01:00,68.0,68.0,-100.00,East,90,0.0,0.0,99,0.00,,,-99.99,,2013-07-05 04:01:00,
2013-07-05 00:11:00,69.0,68.0,-100.00,ESE,120,0.0,0.0,99,0.00,,,-99.99,,2013-07-05 04:11:00,
2013-07-05 00:22:00,69.0,68.0,-100.00,ESE,120,0.0,0.0,99,0.00,,,-99.99,,2013-07-05 04:22:00,
2013-07-05 00:33:00,69.0,68.0,-100.00,SE,125,0.0,0.0,99,0.00,,,-99.99,,2013-07-05 04:33:00,
2013-07-05 00:43:00,69.0,68.0,-100.00,SE,140,0.0,0.0,99,0.00,,,-99.99,,2013-07-05 04:43:00,
2013-07-05 00:53:00,69.0,68.0,-100.00,ESE,115,0.0,0.0,99,0.00,,,-99.99,,2013-07-05 04:53:00,
2013-07-05 01:01:00,69.0,68.0,-100.00,SE,140,0.0,0.0,99,17.56,,,-99.99,,2013-07-05 05:01:00,
2013-07-05 01:12:00,69.0,68.0,-100.00,ESE,120,0.0,0.0,99,0.55,,,-99.99,,2013-07-05 05:12:00,
2013-07-05 01:22:00,69.0,68.0,-100.00,SSE,165,0.0,0.0,99,0.00,,,-99.99,,2013-07-05 05:22:00,
2013-07-05 01:33:00,69.0,68.0,-100.00,North,0,0.0,0.0,99,0.55,,,-99.99,,2013-07-05 05:33:00,
2013-07-05 01:43:00,69.0,69.0,-100.00,NW,325,0.0,0.0,99,0.00,,,-99.99,,2013-07-05 05:43:00,
2013-07-05 01:52:00,69.0,69.0,-100.00,WSW,245,0.0,0.0,99,9.06,,,-99.99,,2013-07-05 05:52:00,
2013-07-05 02:02:00,69.0,68.0,-100.00,SSW,210,0.0,0.0,99,2.24,,,-99.99,,2013-07-05 06:02:00,
2013-07-05 02:13:00,69.0,68.0,-100.00,SSW,210,0.0,0.0,99,0.55,,,-99.99,,2013-07-05 06:13:00,
2013-07-05 02:23:00,69.0,68.0,-100.00,SW,215,0.0,0.0,99,0.00,,,-99.99,,2013-07-05 06:23:00,
2013-07-05 02:34:00,69.0,68.0,-100.00,SSE,160,0.0,0.0,99,0.00,,,-99.99,,2013-07-05 06:34:00,
2013-07-05 02:44:00,69.0,68.0,-100.00,SSW,195,0.0,0.0,99,0.00,,,-99.99,,2013-07-05 06:44:00,
2013-07-05 02:53:00,69.0,68.0,-100.00,South,175,0.0,0.0,99,0.00,,,-99.99,,2013-07-05 06:53:00,
2013-07-05 03:02:00,69.0,68.0,-100.00,South,185,0.0,0.0,99,0.00,,,-99.99,,2013-07-05 07:02:00,
2013-07-05 03:12:00,69.0,68.0,-100.00,South,185,0.0,0.0,99,2.24,,,-99.99,,2013-07-05 07:12:00,
2013-07-05 03:23:00,68.0,68.0,-100.00,West,280,0.0,0.0,99,0.00,,,-99.99,,2013-07-05 07:23:00,
2013-07-05 03:34:00,68.0,68.0,-100.00,South,180,0.0,0.0,99,0.00,,,-99.99,,2013-07-05 07:34:00,
2013-07-05 03:43:00,68.0,68.0,-100.00,SSE,155,0.0,0.0,99,0.00,,,-99.99,,2013-07-05 07:43:00,
2013-07-05 03:53:00,68.0,68.0,-100.00,SSE,150,0.0,0.0,99,0.00,,,-99.99,,2013-07-05 07:53:00,
2013-07-05 04:03:00,68.0,68.0,-100.00,SSW,195,0.0,0.0,99,0.00,,,-99.99,,2013-07-05 08:03:00,
2013-07-05 04:12:00,68.0,68.0,-100.00,SW,215,0.0,0.0,98,0.00,,,-99.99,,2013-07-05 08:12:00,
2013-07-05 04:23:00,68.0,68.0,-100.00,SSW,195,0.0,0.0,98,0.00,,,-99.99,,2013-07-05 08:23:00,
2013-07-05 04:33:00,68.0,68.0,-100.00,SSW,205,0.0,0.0,98,0.00,,,-99.99,,2013-07-05 08:33:00,
2013-07-05 04:44:00,68.0,68.0,-100.00,South,185,0.0,0.0,98,0.00,,,-99.99,,2013-07-05 08:44:00,
2013-07-05 04:55:00,68.0,68.0,-100.00,South,175,0.0,0.0,98,0.00,,,-99.99,,2013-07-05 08:55:00,
2013-07-05 05:08:00,68.0,68.0,-100.00,SSE,165,0.0,0.0,99,0.00,,,-99.99,,2013-07-05 09:08:00,
2013-07-05 05:16:00,68.0,68.0,-100.00,South,170,0.0,0.0,99,0.00,,,-99.99,,2013-07-05 09:16:00,
2013-07-05 05:26:00,68.0,68.0,-100.00,SSW,195,0.0,0.0,99,0.00,,,-99.99,,2013-07-05 09:26:00,
2013-07-05 05:37:00,68.0,68.0,-100.00,South,175,0.0,0.0,99,0.00,,,-99.99,,2013-07-05 09:37:00,
2013-07-05 05:47:00,68.0,68.0,-100.00,WSW,250,0.0,0.0,99,0.00,,,-99.99,,2013-07-05 09:47:00,
2013-07-05 05:54:00,68.0,68.0,-100.00,West,275,0.0,0.0,99,0.00,,,-99.99,,2013-07-05 09:54:00,
2013-07-05 06:07:00,68.0,68.0,-100.00,SSW,195,0.0,0.0,98,0.00,,,-99.99,,2013-07-05 10:07:00,
2013-07-05 06:26:00,68.0,68.0,-100.00,SW,220,0.0,0.0,98,0.00,,,-99.99,,2013-07-05 10:26:00,
2013-07-05 06:37:00,68.0,67.0,-100.00,SSE,150,0.0,0.0,98,0.00,,,-99.99,,2013-07-05 10:37:00,
2013-07-05 06:47:00,67.0,67.0,-100.00,ESE,105,0.0,0.0,99,0.00,,,-99.99,,2013-07-05 10:47:00,
2013-07-05 06:55:00,67.0,67.0,-100.00,SE,130,0.0,0.0,99,0.00,,,-99.99,,2013-07-05 10:55:00,
2013-07-05 07:09:00,67.0,67.0,-100.00,SSE,150,0.0,0.0,99,0.00,,,-99.99,,2013-07-05 11:09:00,
2013-07-05 07:18:00,68.0,68.0,-100.00,South,175,0.0,0.0,99,0.00,,,-99.99,,2013-07-05 11:18:00,
2013-07-05 07:25:00,68.0,68.0,-100.00,South,175,0.0,0.0,99,0.00,,,-99.99,,2013-07-05 11:25:00,
2013-07-05 07:37:00,68.0,68.0,-100.00,South,170,0.0,0.0,99,0.00,,,-99.99,,2013-07-05 11:37:00,
2013-07-05 07:47:00,68.0,67.0,-100.00,SSE,165,0.0,0.0,98,0.00,,,-99.99,,2013-07-05 11:47:00,
2013-07-05 07:57:00,68.0,68.0,-100.00,South,170,0.0,0.0,98,0.00,,,-99.99,,2013-07-05 11:57:00,
2013-07-05 08:16:00,68.0,67.0,-100.00,South,170,0.0,0.0,98,0.00,,,-99.99,,2013-07-05 12:16:00,
2013-07-05 08:37:00,68.0,67.0,-100.00,South,185,0.0,0.0,98,0.00,,,-99.99,,2013-07-05 12:37:00,
2013-07-05 08:48:00,68.0,67.0,-100.00,South,170,0.0,0.0,97,0.00,,,-99.99,,2013-07-05 12:48:00,
2013-07-05 08:56:00,68.0,67.0,-100.00,South,170,0.0,0.0,97,0.00,,,-99.99,,2013-07-05 12:56:00,
2013-07-05 09:06:00,68.0,67.0,-100.00,South,175,0.0,0.0,97,0.00,,,-99.99,,2013-07-05 13:06:00,
2013-07-05 09:13:00,68.0,67.0,-100.00,South,185,0.0,2.0,96,0.00,,,-99.99,,2013-07-05 13:13:00,
2013-07-05 09:25:00,69.0,68.0,-100.00,South,175,1.0,4.0,96,0.00,,,-99.99,,2013-07-05 13:25:00,
2013-07-05 09:39:00,69.0,68.0,-100.00,South,170,1.0,4.0,96,0.00,,,-99.99,,2013-07-05 13:39:00,
2013-07-05 09:48:00,69.0,67.0,-100.00,South,180,1.0,4.0,93,0.00,,,-99.99,,2013-07-05 13:48:00,
2013-07-05 09:55:00,70.0,68.0,-100.00,South,170,1.0,5.0,93,0.00,,,-99.99,,2013-07-05 13:55:00,
2013-07-05 10:07:00,70.0,68.0,-100.00,South,175,1.0,6.0,91,0.00,,,-99.99,,2013-07-05 14:07:00,
2013-07-05 10:16:00,71.0,67.0,-100.00,South,180,0.0,2.0,90,0.00,,,-99.99,,2013-07-05 14:16:00,
2013-07-05 10:27:00,71.0,67.0,-100.00,South,180,0.0,2.0,90,0.00,,,-99.99,,2013-07-05 14:27:00,
2013-07-05 10:46:00,70.0,67.0,-100.00,South,180,0.0,4.0,90,0.00,,,-99.99,,2013-07-05 14:46:00,
2013-07-05 10:55:00,71.0,68.0,-100.00,South,170,0.0,1.0,90,0.00,,,-99.99,,2013-07-05 14:55:00,
2013-07-05 11:07:00,71.0,67.0,-100.00,South,190,1.0,6.0,88,0.00,,,-99.99,,2013-07-05 15:07:00,
2013-07-05 11:34:00,71.0,69.0,-100.00,SSE,160,0.0,4.0,92,0.00,,,-99.99,,2013-07-05 15:34:00,
2013-07-05 13:02:00,76.0,68.0,-100.00,SSW,195,6.0,9.0,76,0.00,,,-99.99,,2013-07-05 17:02:00,
2013-07-05 13:22:00,75.0,67.0,-100.00,South,185,6.0,8.0,74,0.00,,,-99.99,,2013-07-05 17:22:00,
2013-07-05 13:33:00,76.0,66.0,-100.00,SSW,195,2.0,7.0,72,0.00,,,-99.99,,2013-07-05 17:33:00,
2013-07-05 13:43:00,77.0,68.0,-100.00,West,265,4.0,10.0,73,0.00,,,-99.99,,2013-07-05 17:43:00,
2013-07-05 14:11:00,76.0,67.0,-100.00,SSW,195,8.0,9.0,73,0.00,,,-99.99,,2013-07-05 18:11:00,
2013-07-05 14:43:00,76.0,66.0,-100.00,SSW,195,4.0,9.0,71,0.00,,,-99.99,,2013-07-05 18:43:00,
2013-07-05 15:34:00,78.0,65.0,-100.00,South,180,7.0,11.0,65,0.00,,,-99.99,,2013-07-05 19:34:00,
2013-07-05 16:02:00,78.0,67.0,-100.00,SSE,155,6.0,9.0,69,0.00,,,-99.99,,2013-07-05 20:02:00,
2013-07-05 16:33:00,78.0,67.0,-100.00,SSE,165,4.0,7.0,69,0.00,,,-99.99,,2013-07-05 20:33:00,
2013-07-05 16:43:00,79.0,67.0,-100.00,SSE,165,6.0,12.0,67,0.00,,,-99.99,,2013-07-05 20:43:00,
2013-07-05 17:01:00,79.0,67.0,-100.00,SE,145,6.0,11.0,66,0.00,,,-99.99,,2013-07-05 21:01:00,
2013-07-05 17:12:00,79.0,67.0,-100.00,SSE,150,4.0,9.0,65,0.00,,,-99.99,,2013-07-05 21:12:00,
2013-07-05 17:34:00,79.0,67.0,-100.00,SSE,160,4.0,9.0,66,0.00,,,-99.99,,2013-07-05 21:34:00,
2013-07-05 17:43:00,79.0,68.0,-100.00,SSE,155,5.0,12.0,69,0.00,,,-99.99,,2013-07-05 21:43:00,
2013-07-05 17:53:00,79.0,68.0,-100.00,SSE,150,7.0,10.0,70,0.00,,,-99.99,,2013-07-05 21:53:00,
2013-07-05 18:02:00,79.0,68.0,-100.00,South,185,7.0,12.0,69,0.00,,,-99.99,,2013-07-05 22:02:00,
2013-07-05 18:11:00,79.0,68.0,-100.00,South,175,6.0,12.0,69,0.00,,,-99.99,,2013-07-05 22:11:00,
2013-07-05 18:22:00,78.0,67.0,-100.00,SSW,200,7.0,11.0,68,0.00,,,-99.99,,2013-07-05 22:22:00,
2013-07-05 18:34:00,79.0,67.0,-100.00,South,190,7.0,12.0,66,0.00,,,-99.99,,2013-07-05 22:34:00,
2013-07-05 18:43:00,79.0,66.0,-100.00,South,185,7.0,12.0,65,0.00,,,-99.99,,2013-07-05 22:43:00,
2013-07-05 18:53:00,79.0,67.0,-100.00,SSE,160,4.0,10.0,67,0.00,,,-99.99,,2013-07-05 22:53:00,
2013-07-05 19:02:00,79.0,66.0,-100.00,South,180,7.0,12.0,65,0.00,,,-99.99,,2013-07-05 23:02:00,
2013-07-05 19:11:00,78.0,65.0,-100.00,South,185,6.0,9.0,64,0.00,,,-99.99,,2013-07-05 23:11:00,
2013-07-05 19:23:00,78.0,65.0,-100.00,South,180,6.0,9.0,64,0.00,,,-99.99,,2013-07-05 23:23:00,
2013-07-05 19:32:00,78.0,66.0,-100.00,South,170,3.0,8.0,66,0.00,,,-99.99,,2013-07-05 23:32:00,
2013-07-05 19:43:00,78.0,66.0,-100.00,South,170,5.0,8.0,66,0.00,,,-99.99,,2013-07-05 23:43:00,
2013-07-05 19:53:00,77.0,66.0,-100.00,South,170,5.0,9.0,69,0.00,,,-99.99,,2013-07-05 23:53:00,
2013-07-05 20:01:00,76.0,68.0,-100.00,SE,140,4.0,8.0,74,0.00,,,-99.99,,2013-07-06 00:01:00,
2013-07-05 20:12:00,76.0,68.0,-100.00,SSE,165,4.0,8.0,75,0.00,,,-99.99,,2013-07-06 00:12:00,
2013-07-05 20:22:00,76.0,68.0,-100.00,SSE,150,6.0,9.0,77,0.00,,,-99.99,,2013-07-06 00:22:00,
2013-07-05 20:33:00,75.0,68.0,-100.00,SSE,150,7.0,12.0,78,0.00,,,-99.99,,2013-07-06 00:33:00,
2013-07-05 20:42:00,75.0,67.0,-100.00,SSE,155,6.0,12.0,77,0.00,,,-99.99,,2013-07-06 00:42:00,
2013-07-05 20:53:00,74.0,67.0,-100.00,SSE,165,4.0,9.0,79,0.00,,,-99.99,,2013-07-06 00:53:00,
2013-07-05 21:02:00,74.0,68.0,-100.00,SSE,155,5.0,8.0,81,0.00,,,-99.99,,2013-07-06 01:02:00,
2013-07-05 21:12:00,73.0,68.0,-100.00,SSE,160,3.0,6.0,83,0.00,,,-99.99,,2013-07-06 01:12:00,
2013-07-05 21:33:00,73.0,68.0,-100.00,SSE,160,3.0,7.0,84,0.00,,,-99.99,,2013-07-06 01:33:00,
2013-07-05 21:43:00,72.0,69.0,-100.00,SE,145,0.0,0.0,89,0.00,,,-99.99,,2013-07-06 01:43:00,
2013-07-05 22:43:00,71.0,68.0,-100.00,SE,145,3.0,6.0,92,0.00,,,-99.99,,2013-07-06 02:43:00,
2013-07-05 22:53:00,71.0,68.0,-100.00,SE,145,3.0,6.0,92,0.00,,,-99.99,,2013-07-06 02:53:00,
2013-07-05 23:02:00,71.0,68.0,-100.00,SE,145,3.0,6.0,92,0.00,,,-99.99,,2013-07-06 03:02:00,